createdAt,value
2023-01-03T00:01:58.866Z,31.75
2023-01-03T00:04:25.954Z,12.27
2023-01-03T00:06:54.301Z,17.05
2023-01-03T00:09:24.860Z,28.38
2023-01-03T00:12:13.252Z,43.88
2023-01-03T00:14:43.825Z,13.02
2023-01-03T00:17:12.993Z,9.30
2023-01-03T00:19:44.768Z,11.50
2023-01-03T00:22:14.237Z,9.50
2023-01-03T00:24:42.146Z,10.45
2023-01-03T00:27:10.400Z,9.23
2023-01-03T00:29:39.765Z,7.03
2023-01-03T00:32:07.541Z,8.18
2023-01-03T00:34:36.266Z,8.63
2023-01-03T00:37:05.360Z,7.38
2023-01-03T00:39:33.894Z,6.53
2023-01-03T00:42:03.182Z,6.03
2023-01-03T00:44:31.621Z,9.77
2023-01-03T00:47:06.080Z,6.95
2023-01-03T00:49:34.609Z,7.82
2023-01-03T00:52:02.096Z,5.45
2023-01-03T00:54:29.761Z,6.78
2023-01-03T00:56:57.040Z,6.15
2023-01-03T00:59:24.400Z,11.52
2023-01-03T01:01:54.945Z,5.53
2023-01-03T01:04:30.919Z,6.70
2023-01-03T01:07:01.492Z,7.25
2023-01-03T01:09:33.796Z,7.63
2023-01-03T01:12:01.517Z,7.68
2023-01-03T01:14:30.593Z,8.43
2023-01-03T01:17:00.890Z,6.63
2023-01-03T01:19:33.932Z,6.70
2023-01-03T01:22:01.958Z,6.88
2023-01-03T01:24:35.474Z,7.53
2023-01-03T01:27:03.055Z,7.13
2023-01-03T01:29:38.514Z,14.13
2023-01-03T01:32:06.720Z,10.45
2023-01-03T01:34:34.086Z,7.07
2023-01-03T01:37:03.432Z,11.30
2023-01-03T01:39:32.343Z,7.82
2023-01-03T01:42:22.312Z,11.85
2023-01-03T01:45:04.322Z,12.10
2023-01-03T01:47:41.634Z,13.82
2023-01-03T01:50:40.075Z,13.18
2023-01-03T01:53:15.647Z,11.55
2023-01-03T01:56:13.717Z,14.32
2023-01-03T01:58:43.736Z,13.68
2023-01-03T02:04:03.395Z,14.32
2023-01-03T02:06:33.538Z,14.35
2023-01-03T02:09:00.828Z,12.35
2023-01-03T02:11:47.079Z,14.02
2023-01-03T02:14:32.359Z,14.68
2023-01-03T02:17:14.773Z,14.20
2023-01-03T02:20:06.917Z,13.05
2023-01-03T02:22:46.500Z,13.07
2023-01-03T02:25:38.292Z,14.93
2023-01-03T02:28:30.217Z,12.40
2023-01-03T02:31:10.462Z,12.27
2023-01-03T02:34:16.980Z,17.27
2023-01-03T02:36:59.574Z,16.55
2023-01-03T02:39:44.211Z,16.10
2023-01-03T02:42:40.980Z,18.30
2023-01-03T02:45:16.832Z,13.57
2023-01-03T02:47:58.108Z,13.30
2023-01-03T02:50:39.748Z,14.75
2023-01-03T02:53:12.673Z,11.70
2023-01-03T02:55:42.505Z,13.80
2023-01-03T02:58:16.077Z,12.80
2023-01-03T03:00:50.874Z,11.23
2023-01-03T03:03:23.724Z,12.13
2023-01-03T03:06:03.251Z,13.27
2023-01-03T03:08:30.822Z,11.80
2023-01-03T03:11:16.993Z,10.25
2023-01-03T03:13:53.543Z,11.00
2023-01-03T03:16:50.388Z,9.25
2023-01-03T03:19:44.572Z,10.68
2023-01-03T03:22:46.393Z,10.35
2023-01-03T03:25:27.867Z,11.20
2023-01-03T03:28:19.509Z,7.15
2023-01-03T03:30:50.165Z,7.38
2023-01-03T03:33:20.709Z,7.03
2023-01-03T03:35:58.959Z,8.77
2023-01-03T03:38:35.460Z,8.52
2023-01-03T03:41:26.074Z,8.43
2023-01-03T03:44:28.603Z,9.13
2023-01-03T03:47:07.204Z,8.23
2023-01-03T03:49:38.451Z,9.95
2023-01-03T03:52:26.511Z,7.28
2023-01-03T03:55:08.487Z,6.25
2023-01-03T03:57:41.492Z,7.00
2023-01-03T04:00:15.792Z,6.63
2023-01-03T04:02:47.211Z,4.75
2023-01-03T04:05:18.159Z,5.15
2023-01-03T04:07:47.105Z,5.78
2023-01-03T04:10:20.482Z,6.05
2023-01-03T04:12:52.173Z,5.38
2023-01-03T04:15:20.169Z,4.97
2023-01-03T04:17:47.468Z,6.28
2023-01-03T04:20:15.418Z,5.55
2023-01-03T04:22:42.876Z,5.57
2023-01-03T04:25:11.609Z,4.68
2023-01-03T04:27:38.808Z,6.03
2023-01-03T04:30:07.396Z,4.45
2023-01-03T04:32:34.856Z,4.72
2023-01-03T04:35:02.289Z,4.22
2023-01-03T04:37:29.782Z,4.47
2023-01-03T04:39:57.193Z,9.45
2023-01-03T04:42:43.069Z,5.75
2023-01-03T04:45:11.402Z,6.25
2023-01-03T04:47:38.494Z,5.95
2023-01-03T04:50:06.292Z,7.43
2023-01-03T04:52:33.451Z,4.03
2023-01-03T04:55:01.873Z,3.80
2023-01-03T04:57:29.341Z,4.80
2023-01-03T04:59:56.801Z,3.83
2023-01-03T05:02:23.888Z,4.80
2023-01-03T05:04:51.245Z,7.38
2023-01-03T05:07:19.275Z,3.35
2023-01-03T05:09:46.758Z,3.67
2023-01-03T05:12:15.404Z,4.22
2023-01-03T05:14:42.735Z,4.25
2023-01-03T05:17:10.338Z,3.75
2023-01-03T05:20:02.466Z,3.85
2023-01-03T05:22:48.036Z,2.40
2023-01-03T05:25:34.408Z,3.47
2023-01-03T05:28:03.796Z,3.20
2023-01-03T05:30:30.993Z,3.10
2023-01-03T05:32:58.767Z,2.83
2023-01-03T05:35:26.468Z,3.35
2023-01-03T05:37:54.628Z,2.53
2023-01-03T05:40:22.086Z,3.72
2023-01-03T05:42:50.273Z,3.42
2023-01-03T05:45:17.834Z,3.45
2023-01-03T05:47:45.200Z,3.30
2023-01-03T05:50:12.615Z,3.17
2023-01-03T05:52:40.033Z,5.93
2023-01-03T05:55:07.827Z,5.25
2023-01-03T05:57:36.996Z,7.50
2023-01-03T06:00:05.902Z,18.30
2023-01-03T06:02:33.019Z,63.83
2023-01-03T06:05:00.445Z,23.27
2023-01-03T06:07:30.431Z,84.85
2023-01-03T06:09:57.955Z,81.93
2023-01-03T06:12:27.777Z,72.00
2023-01-03T06:14:55.999Z,16.55
2023-01-03T06:17:41.780Z,27.00
2023-01-03T06:20:11.280Z,7.10
2023-01-03T06:22:38.888Z,25.92
2023-01-03T06:25:07.436Z,17.55
2023-01-03T06:27:36.339Z,27.35
2023-01-03T06:30:03.908Z,26.02
2023-01-03T06:32:31.396Z,33.25
2023-01-03T06:34:59.623Z,88.85
2023-01-03T06:37:26.999Z,12.77
2023-01-03T06:39:54.454Z,24.05
2023-01-03T06:42:40.015Z,6.18
2023-01-03T06:45:33.169Z,5.07
2023-01-03T06:48:25.879Z,3.88
2023-01-03T06:51:11.923Z,5.53
2023-01-03T06:53:43.040Z,4.13
2023-01-03T06:56:10.763Z,18.17
2023-01-03T06:58:37.864Z,19.73
2023-01-03T07:01:07.746Z,7.88
2023-01-03T07:03:35.397Z,8.27
2023-01-03T07:06:02.989Z,8.27
2023-01-03T07:08:32.257Z,6.25
2023-01-03T07:11:00.306Z,6.72
2023-01-03T07:13:47.345Z,4.68
2023-01-03T07:16:19.198Z,5.95
2023-01-03T07:18:59.579Z,5.63
2023-01-03T07:21:29.130Z,4.82
2023-01-03T07:23:57.944Z,5.35
2023-01-03T07:26:25.846Z,3.92
2023-01-03T07:28:53.684Z,28.77
2023-01-03T07:31:21.154Z,94.45
2023-01-03T07:33:48.434Z,70.82
2023-01-03T07:36:17.155Z,27.67
2023-01-03T07:38:45.854Z,7.28
2023-01-03T07:41:14.573Z,8.68
2023-01-03T07:43:45.286Z,11.40
2023-01-03T07:46:22.439Z,12.27
2023-01-03T07:48:57.363Z,42.47
2023-01-03T07:51:33.485Z,82.70
2023-01-03T07:54:02.984Z,144.68
2023-01-03T07:56:40.065Z,69.88
2023-01-03T07:59:07.369Z,16.95
2023-01-03T08:01:34.678Z,25.48
2023-01-03T08:04:01.971Z,58.78
2023-01-03T08:06:29.272Z,61.47
2023-01-03T08:09:15.014Z,25.95
2023-01-03T08:12:00.851Z,35.35
2023-01-03T08:14:40.267Z,26.05
2023-01-03T08:17:08.887Z,11.73
2023-01-03T08:19:45.164Z,37.08
2023-01-03T08:22:12.909Z,39.35
2023-01-03T08:24:39.973Z,13.30
2023-01-03T08:27:07.330Z,4.75
2023-01-03T08:29:34.397Z,7.90
2023-01-03T08:32:04.127Z,7.80
2023-01-03T08:34:36.602Z,7.85
2023-01-03T08:37:10.544Z,16.52
2023-01-03T08:39:44.384Z,21.80
2023-01-03T08:42:16.066Z,9.00
2023-01-03T08:44:45.437Z,6.13
2023-01-03T08:47:15.714Z,3.38
2023-01-03T08:49:46.235Z,3.67
2023-01-03T08:52:13.290Z,8.80
2023-01-03T08:54:41.657Z,3.35
2023-01-03T08:57:08.991Z,9.70
2023-01-03T08:59:37.154Z,10.27
2023-01-03T09:02:04.708Z,50.30
2023-01-03T09:04:31.999Z,39.97
2023-01-03T09:06:59.489Z,53.63
2023-01-03T09:09:26.820Z,11.93
2023-01-03T09:11:54.288Z,8.50
2023-01-03T09:14:21.490Z,14.27
2023-01-03T09:16:49.646Z,6.00
2023-01-03T09:19:17.059Z,8.48
2023-01-03T09:21:44.131Z,3.17
2023-01-03T09:24:11.208Z,6.45
2023-01-03T09:26:41.545Z,18.00
2023-01-03T09:29:08.713Z,31.50
2023-01-03T09:31:40.049Z,31.15
2023-01-03T09:34:08.809Z,39.03
2023-01-03T09:36:38.838Z,30.48
2023-01-03T09:39:06.720Z,11.80
2023-01-03T09:41:35.133Z,12.85
2023-01-03T09:44:09.145Z,17.42
2023-01-03T09:46:37.569Z,11.68
2023-01-03T09:49:08.590Z,10.60
2023-01-03T09:51:59.103Z,12.45
2023-01-03T09:54:53.889Z,8.80
2023-01-03T09:57:54.878Z,36.05
2023-01-03T10:00:54.152Z,30.67
2023-01-03T10:03:50.826Z,11.98
2023-01-03T10:06:46.634Z,8.02
2023-01-03T10:09:18.077Z,5.22
2023-01-03T10:12:20.516Z,6.80
2023-01-03T10:14:50.728Z,5.70
2023-01-03T10:17:35.973Z,6.65
2023-01-03T10:20:12.995Z,4.35
2023-01-03T10:22:41.178Z,5.57
2023-01-03T10:25:21.843Z,5.45
2023-01-03T10:27:54.952Z,4.20
2023-01-03T10:30:37.400Z,6.53
2023-01-03T10:33:20.352Z,4.80
2023-01-03T10:35:47.467Z,4.55
2023-01-03T10:38:17.112Z,7.40
2023-01-03T10:40:50.823Z,6.20
2023-01-03T10:46:00.519Z,7.45
2023-01-03T10:49:17.064Z,8.40
2023-01-03T10:51:43.797Z,6.35
2023-01-03T10:54:51.517Z,6.22
2023-01-03T10:57:46.806Z,7.07
2023-01-03T11:00:36.397Z,12.90
2023-01-03T11:03:13.368Z,16.45
2023-01-03T11:05:43.367Z,35.17
2023-01-03T11:08:20.051Z,34.80
2023-01-03T11:10:53.872Z,25.67
2023-01-03T11:13:30.606Z,65.80
2023-01-03T11:16:04.251Z,4.20
2023-01-03T11:21:35.884Z,4.38
2023-01-03T11:24:42.682Z,6.50
2023-01-03T11:27:20.036Z,4.90
2023-01-03T11:29:53.352Z,7.28
2023-01-03T11:32:39.549Z,6.78
2023-01-03T11:35:25.682Z,5.75
2023-01-03T11:38:24.548Z,4.30
2023-01-03T11:41:04.040Z,15.80
2023-01-03T11:43:54.878Z,16.55
2023-01-03T11:46:38.646Z,4.60
2023-01-03T11:49:19.253Z,5.68
2023-01-03T11:52:22.037Z,6.05
2023-01-03T11:55:15.907Z,6.45
2023-01-03T11:58:02.655Z,7.43
2023-01-03T12:00:46.806Z,4.40
2023-01-03T12:03:41.596Z,3.70
2023-01-03T12:06:29.164Z,5.03
2023-01-03T12:08:56.777Z,6.28
2023-01-03T12:11:50.127Z,6.82
2023-01-03T12:14:33.268Z,5.33
2023-01-03T12:17:26.929Z,5.90
2023-01-03T12:20:11.335Z,4.65
2023-01-03T12:22:44.523Z,6.57
2023-01-03T12:25:23.243Z,4.18
2023-01-03T12:28:01.272Z,10.07
2023-01-03T12:30:50.460Z,4.95
2023-01-03T12:33:48.967Z,5.50
2023-01-03T12:36:41.783Z,6.05
2023-01-03T12:39:33.671Z,5.55
2023-01-03T12:42:16.796Z,5.20
2023-01-03T12:44:50.082Z,7.32
2023-01-03T12:47:30.094Z,9.02
2023-01-03T12:50:07.788Z,9.32
2023-01-03T12:52:36.210Z,11.88
2023-01-03T12:55:15.234Z,9.13
2023-01-03T12:58:05.177Z,11.98
2023-01-03T13:00:53.792Z,7.95
2023-01-03T13:03:21.447Z,7.20
2023-01-03T13:06:03.294Z,10.00
2023-01-03T13:08:33.925Z,18.35
2023-01-03T13:11:16.932Z,10.15
2023-01-03T13:14:16.210Z,10.77
2023-01-03T13:16:50.432Z,7.28
2023-01-03T13:19:23.056Z,9.82
2023-01-03T13:21:52.975Z,7.82
2023-01-03T13:24:45.421Z,11.73
2023-01-03T13:27:22.994Z,13.73
2023-01-03T13:29:53.604Z,16.85
2023-01-03T13:32:23.689Z,11.07
2023-01-03T13:34:57.226Z,14.40
2023-01-03T13:37:29.812Z,10.02
2023-01-03T13:40:39.256Z,9.13
2023-01-03T13:45:39.380Z,8.38
2023-01-03T13:48:20.915Z,7.38
2023-01-03T13:51:16.889Z,6.80
2023-01-03T13:54:05.575Z,7.72
2023-01-03T13:56:59.268Z,10.88
2023-01-03T13:59:44.186Z,12.10
2023-01-03T14:02:26.375Z,14.20
2023-01-03T14:05:19.043Z,13.60
2023-01-03T14:08:13.556Z,11.02
2023-01-03T14:11:02.482Z,12.68
2023-01-03T14:14:06.926Z,10.10
2023-01-03T14:16:53.294Z,14.20
2023-01-03T14:19:30.492Z,26.52
2023-01-03T14:22:27.956Z,15.40
2023-01-03T14:24:58.753Z,23.50
2023-01-03T14:27:35.665Z,62.47
2023-01-03T14:30:02.835Z,24.85
2023-01-03T14:32:37.643Z,35.22
2023-01-03T14:35:07.060Z,20.75
2023-01-03T14:37:37.213Z,23.02
2023-01-03T14:40:07.775Z,37.50
2023-01-03T14:42:34.914Z,29.02
2023-01-03T14:45:06.552Z,39.78
2023-01-03T14:47:39.398Z,28.75
2023-01-03T14:50:14.714Z,22.83
2023-01-03T14:52:46.132Z,30.58
2023-01-03T14:55:20.637Z,12.95
2023-01-03T14:57:49.985Z,28.90
2023-01-03T15:00:25.370Z,29.27
2023-01-03T15:02:58.131Z,31.80
2023-01-03T15:05:35.471Z,32.40
2023-01-03T15:08:21.013Z,24.38
2023-01-03T15:11:00.713Z,21.00
2023-01-03T15:13:50.778Z,38.75
2023-01-03T15:16:27.221Z,67.18
2023-01-03T15:19:13.013Z,79.88
2023-01-03T15:21:41.907Z,70.35
2023-01-03T15:24:16.954Z,109.78
2023-01-03T15:26:47.358Z,77.93
2023-01-03T15:29:15.787Z,49.25
2023-01-03T15:31:55.396Z,33.63
2023-01-03T15:34:35.001Z,26.23
2023-01-03T15:37:20.472Z,20.60
2023-01-03T15:39:53.222Z,27.67
2023-01-03T15:42:45.274Z,36.97
2023-01-03T15:45:27.492Z,36.80
2023-01-03T15:47:58.061Z,32.35
2023-01-03T15:50:39.491Z,51.35
2023-01-03T15:53:21.616Z,91.35
2023-01-03T15:55:52.632Z,87.07
2023-01-03T15:58:20.007Z,140.95
2023-01-03T16:00:49.016Z,77.45
2023-01-03T16:03:18.162Z,69.68
2023-01-03T16:05:45.806Z,67.10
2023-01-03T16:08:33.977Z,49.28
2023-01-03T16:11:05.853Z,42.53
2023-01-03T16:13:40.604Z,34.10
2023-01-03T16:16:10.169Z,48.08
2023-01-03T16:18:47.421Z,89.63
2023-01-03T16:21:15.701Z,38.42
2023-01-03T16:23:43.282Z,79.50
2023-01-03T16:26:11.528Z,95.50
2023-01-03T16:28:39.169Z,71.13
2023-01-03T16:31:32.177Z,63.30
2023-01-03T16:34:00.168Z,61.88
2023-01-03T16:36:37.345Z,42.25
2023-01-03T16:39:10.425Z,44.35
2023-01-03T16:41:38.873Z,58.20
2023-01-03T16:44:06.663Z,251.02
2023-01-03T16:46:38.102Z,122.50
2023-01-03T16:49:06.220Z,69.20
2023-01-03T16:51:38.005Z,77.43
2023-01-03T16:54:08.625Z,112.43
2023-01-03T16:56:37.965Z,113.45
2023-01-03T16:59:10.599Z,136.27
2023-01-03T17:01:38.097Z,72.70
2023-01-03T17:04:06.710Z,66.05
2023-01-03T17:06:38.617Z,51.83
2023-01-03T17:09:16.221Z,47.85
2023-01-03T17:11:44.759Z,157.07
2023-01-03T17:14:23.099Z,258.77
2023-01-03T17:16:51.007Z,71.78
2023-01-03T17:20:01.553Z,132.18
2023-01-03T17:22:14.206Z,103.65
2023-01-03T17:24:43.311Z,88.45
2023-01-03T17:27:31.139Z,67.63
2023-01-03T17:30:04.791Z,58.00
2023-01-03T17:32:34.250Z,58.25
2023-01-03T17:38:24.709Z,37.72
2023-01-03T17:40:48.883Z,60.85
2023-01-03T17:43:22.261Z,40.53
2023-01-03T17:46:16.113Z,35.90
2023-01-03T17:49:06.477Z,36.72
2023-01-03T17:51:33.940Z,31.98
2023-01-03T17:54:02.324Z,25.70
2023-01-03T17:56:32.118Z,26.70
2023-01-03T17:59:00.107Z,42.90
2023-01-03T18:01:29.026Z,35.25
2023-01-03T18:03:56.295Z,33.78
2023-01-03T18:06:26.071Z,32.75
2023-01-03T18:08:58.359Z,50.03
2023-01-03T18:11:27.465Z,98.40
2023-01-03T18:13:54.698Z,119.90
2023-01-03T18:16:24.307Z,31.55
2023-01-03T18:18:51.757Z,21.60
2023-01-03T18:21:25.472Z,223.52
2023-01-03T18:24:11.275Z,179.23
2023-01-03T18:26:45.461Z,165.52
2023-01-03T18:29:15.791Z,81.20
2023-01-03T18:31:44.266Z,51.83
2023-01-03T18:34:15.404Z,58.63
2023-01-03T18:36:47.617Z,51.72
2023-01-03T18:39:19.020Z,42.45
2023-01-03T18:41:46.447Z,39.28
2023-01-03T18:44:20.716Z,49.35
2023-01-03T18:46:48.851Z,45.38
2023-01-03T18:49:17.097Z,51.17
2023-01-03T18:51:45.112Z,35.28
2023-01-03T18:54:18.773Z,34.80
2023-01-03T18:56:46.796Z,34.17
2023-01-03T18:59:21.661Z,20.00
2023-01-03T19:01:50.153Z,20.88
2023-01-03T19:04:19.820Z,523.20
2023-01-03T19:06:51.145Z,355.17
2023-01-03T19:09:23.000Z,300.48
2023-01-03T19:11:57.466Z,313.90
2023-01-03T19:14:24.991Z,26.15
2023-01-03T19:16:54.417Z,77.22
2023-01-03T19:19:21.924Z,55.47
2023-01-03T19:21:50.357Z,28.25
2023-01-03T19:24:39.041Z,20.33
2023-01-03T19:27:22.451Z,21.50
2023-01-03T19:29:51.421Z,14.40
2023-01-03T19:32:28.916Z,10.77
2023-01-03T19:34:58.001Z,8.70
2023-01-03T19:37:28.311Z,16.77
2023-01-03T19:39:57.759Z,91.68
2023-01-03T19:42:43.991Z,207.60
2023-01-03T19:45:33.659Z,506.45
2023-01-03T19:48:15.911Z,103.47
2023-01-03T19:50:43.929Z,41.42
2023-01-03T19:53:13.656Z,20.38
2023-01-03T19:55:44.762Z,16.10
2023-01-03T19:58:27.653Z,12.25
2023-01-03T20:00:58.268Z,29.10
2023-01-03T20:03:40.166Z,177.73
2023-01-03T20:06:12.251Z,133.20
2023-01-03T20:08:40.118Z,9.90
2023-01-03T20:11:23.457Z,18.65
2023-01-03T20:13:54.423Z,16.52
2023-01-03T20:16:24.579Z,15.63
2023-01-03T20:18:52.401Z,9.38
2023-01-03T20:21:24.180Z,15.43
2023-01-03T20:23:59.552Z,46.20
2023-01-03T20:26:35.320Z,54.58
2023-01-03T20:29:03.704Z,93.75
2023-01-03T20:31:32.098Z,77.63
2023-01-03T20:34:01.775Z,94.25
2023-01-03T20:36:41.194Z,30.77
2023-01-03T20:39:25.367Z,24.60
2023-01-03T20:41:54.201Z,27.58
2023-01-03T20:44:24.295Z,32.53
2023-01-03T20:46:51.767Z,29.00
2023-01-03T20:49:26.868Z,20.88
2023-01-03T20:51:54.937Z,16.50
2023-01-03T20:54:22.995Z,14.40
2023-01-03T20:56:56.769Z,15.30
2023-01-03T20:59:25.091Z,16.88
2023-01-03T21:01:52.244Z,16.92
2023-01-03T21:04:19.578Z,18.88
2023-01-03T21:06:49.137Z,15.25
2023-01-03T21:09:16.476Z,23.58
2023-01-03T21:11:44.141Z,18.48
2023-01-03T21:14:15.010Z,18.30
2023-01-03T21:16:46.272Z,26.75
2023-01-03T21:19:24.677Z,21.52
2023-01-03T21:22:01.696Z,16.55
2023-01-03T21:24:34.403Z,13.40
2023-01-03T21:27:06.973Z,17.02
2023-01-03T21:29:34.283Z,13.23
2023-01-03T21:32:03.931Z,18.67
2023-01-03T21:34:33.130Z,18.85
2023-01-03T21:37:00.685Z,27.50
2023-01-03T21:39:29.194Z,26.63
2023-01-03T21:42:17.656Z,22.05
2023-01-03T21:44:47.250Z,23.27
2023-01-03T21:47:14.561Z,21.35
2023-01-03T21:49:42.117Z,26.73
2023-01-03T21:52:10.793Z,19.35
2023-01-03T21:54:39.009Z,26.40
2023-01-03T21:57:06.473Z,24.83
2023-01-03T21:59:34.205Z,21.73
2023-01-03T22:02:19.829Z,25.35
2023-01-03T22:04:47.245Z,24.02
2023-01-03T22:07:14.700Z,14.40
2023-01-03T22:10:00.304Z,113.40
2023-01-03T22:12:29.577Z,119.68
2023-01-03T22:14:57.012Z,23.15
2023-01-03T22:17:24.488Z,15.55
2023-01-03T22:19:51.888Z,58.53
2023-01-03T22:22:19.466Z,47.95
2023-01-03T22:24:46.929Z,63.13
2023-01-03T22:27:14.170Z,92.43
2023-01-03T22:29:42.444Z,57.70
2023-01-03T22:32:10.717Z,53.88
2023-01-03T22:34:38.865Z,59.47
2023-01-03T22:37:07.565Z,57.55
2023-01-03T22:39:34.972Z,35.75
2023-01-03T22:42:02.327Z,38.25
2023-01-03T22:44:30.787Z,28.55
2023-01-03T22:46:58.561Z,21.80
2023-01-03T22:49:25.726Z,20.73
2023-01-03T22:52:06.420Z,30.52
2023-01-03T22:54:35.585Z,25.80
2023-01-03T22:57:03.590Z,32.00
2023-01-03T22:59:30.882Z,34.70
2023-01-03T23:01:58.920Z,57.72
2023-01-03T23:04:28.104Z,49.90
2023-01-03T23:06:56.386Z,66.30
2023-01-03T23:09:25.038Z,58.85
2023-01-03T23:12:11.751Z,45.45
2023-01-03T23:14:39.252Z,39.50
2023-01-03T23:17:25.225Z,46.90
2023-01-03T23:19:52.662Z,45.38
2023-01-03T23:22:20.134Z,46.08
2023-01-03T23:24:47.512Z,50.33
2023-01-03T23:27:15.119Z,46.50
2023-01-03T23:29:43.467Z,55.05
2023-01-03T23:32:10.957Z,49.58
2023-01-03T23:34:38.457Z,42.95
2023-01-03T23:37:05.812Z,42.40
2023-01-03T23:39:33.529Z,40.78
2023-01-03T23:42:01.793Z,41.78
2023-01-03T23:44:29.950Z,40.38
2023-01-03T23:46:58.258Z,31.38
2023-01-03T23:49:25.801Z,36.30
2023-01-03T23:51:53.254Z,30.60
2023-01-03T23:54:20.845Z,34.67
2023-01-03T23:56:48.624Z,31.92
2023-01-03T23:59:16.171Z,29.48
